sensor_id;sensor_type;location;lat;lon;timestamp;temperature;humidity
29353;DHT22;16344;50.364;8.944;2023-05-07T00:02:20;17.80;99.90
29353;DHT22;16344;50.364;8.944;2023-05-07T00:04:46;17.70;99.90
29353;DHT22;16344;50.364;8.944;2023-05-07T00:07:12;17.80;99.90
29353;DHT22;16344;50.364;8.944;2023-05-07T00:09:37;17.70;99.90
29353;DHT22;16344;50.364;8.944;2023-05-07T00:12:03;17.60;99.90
29353;DHT22;16344;50.364;8.944;2023-05-07T00:14:29;17.60;99.90
29353;DHT22;16344;50.364;8.944;2023-05-07T00:16:55;17.60;99.90
29353;DHT22;16344;50.364;8.944;2023-05-07T00:19:20;17.60;99.90
29353;DHT22;16344;50.364;8.944;2023-05-07T00:21:46;17.60;99.90
29353;DHT22;16344;50.364;8.944;2023-05-07T00:24:12;17.60;99.90
29353;DHT22;16344;50.364;8.944;2023-05-07T00:26:37;17.70;99.90
29353;DHT22;16344;50.364;8.944;2023-05-07T00:29:03;17.70;99.90
29353;DHT22;16344;50.364;8.944;2023-05-07T00:31:29;17.80;99.90
29353;DHT22;16344;50.364;8.944;2023-05-07T00:33:54;17.70;99.90
29353;DHT22;16344;50.364;8.944;2023-05-07T00:36:20;17.80;99.90
29353;DHT22;16344;50.364;8.944;2023-05-07T00:38:45;17.80;99.90
29353;DHT22;16344;50.364;8.944;2023-05-07T00:41:11;17.80;99.90
29353;DHT22;16344;50.364;8.944;2023-05-07T00:43:37;17.60;59.10
29353;DHT22;16344;50.364;8.944;2023-05-07T00:46:03;17.30;95.00
29353;DHT22;16344;50.364;8.944;2023-05-07T00:48:28;17.20;99.90
29353;DHT22;16344;50.364;8.944;2023-05-07T00:50:54;17.20;99.90
29353;DHT22;16344;50.364;8.944;2023-05-07T00:53:20;17.00;99.90
29353;DHT22;16344;50.364;8.944;2023-05-07T00:55:46;16.90;99.90
29353;DHT22;16344;50.364;8.944;2023-05-07T00:58:12;16.70;99.90
29353;DHT22;16344;50.364;8.944;2023-05-07T01:00:37;16.70;99.90
29353;DHT22;16344;50.364;8.944;2023-05-07T01:03:03;16.70;99.90
29353;DHT22;16344;50.364;8.944;2023-05-07T01:05:30;16.80;99.90
29353;DHT22;16344;50.364;8.944;2023-05-07T01:07:57;16.70;99.90
29353;DHT22;16344;50.364;8.944;2023-05-07T01:10:23;16.70;99.90
29353;DHT22;16344;50.364;8.944;2023-05-07T01:12:50;16.50;99.90
29353;DHT22;16344;50.364;8.944;2023-05-07T01:15:16;16.40;99.90
29353;DHT22;16344;50.364;8.944;2023-05-07T01:17:42;16.30;99.90
29353;DHT22;16344;50.364;8.944;2023-05-07T01:20:09;16.30;99.90
29353;DHT22;16344;50.364;8.944;2023-05-07T01:22:37;16.10;99.90
29353;DHT22;16344;50.364;8.944;2023-05-07T01:25:06;16.10;99.90
29353;DHT22;16344;50.364;8.944;2023-05-07T01:27:33;16.10;99.90
29353;DHT22;16344;50.364;8.944;2023-05-07T01:30:00;16.20;99.90
29353;DHT22;16344;50.364;8.944;2023-05-07T01:32:32;16.20;99.90
29353;DHT22;16344;50.364;8.944;2023-05-07T01:35:00;16.30;99.90
29353;DHT22;16344;50.364;8.944;2023-05-07T01:37:26;16.30;99.90
29353;DHT22;16344;50.364;8.944;2023-05-07T01:39:53;16.30;99.90
29353;DHT22;16344;50.364;8.944;2023-05-07T01:42:19;16.40;99.90
29353;DHT22;16344;50.364;8.944;2023-05-07T01:44:45;16.50;99.90
29353;DHT22;16344;50.364;8.944;2023-05-07T01:47:12;16.50;99.90
29353;DHT22;16344;50.364;8.944;2023-05-07T01:49:38;16.50;99.90
29353;DHT22;16344;50.364;8.944;2023-05-07T01:52:04;16.50;99.90
29353;DHT22;16344;50.364;8.944;2023-05-07T01:54:29;16.50;99.90
29353;DHT22;16344;50.364;8.944;2023-05-07T01:56:59;16.60;99.90
29353;DHT22;16344;50.364;8.944;2023-05-07T01:59:25;16.80;99.90
29353;DHT22;16344;50.364;8.944;2023-05-07T02:01:50;16.80;99.90
29353;DHT22;16344;50.364;8.944;2023-05-07T02:04:17;16.70;99.90
29353;DHT22;16344;50.364;8.944;2023-05-07T02:06:42;16.60;99.90
29353;DHT22;16344;50.364;8.944;2023-05-07T02:09:08;16.70;99.90
29353;DHT22;16344;50.364;8.944;2023-05-07T02:11:34;16.60;99.90
29353;DHT22;16344;50.364;8.944;2023-05-07T02:13:59;16.60;99.90
29353;DHT22;16344;50.364;8.944;2023-05-07T02:16:25;16.70;99.90
29353;DHT22;16344;50.364;8.944;2023-05-07T02:18:50;16.70;99.90
29353;DHT22;16344;50.364;8.944;2023-05-07T02:21:16;16.60;99.90
29353;DHT22;16344;50.364;8.944;2023-05-07T02:23:42;16.70;99.90
29353;DHT22;16344;50.364;8.944;2023-05-07T02:26:07;16.60;99.90
29353;DHT22;16344;50.364;8.944;2023-05-07T02:28:33;16.60;99.90
29353;DHT22;16344;50.364;8.944;2023-05-07T02:31:03;16.50;99.90
29353;DHT22;16344;50.364;8.944;2023-05-07T02:33:29;16.60;99.90
29353;DHT22;16344;50.364;8.944;2023-05-07T02:35:55;16.70;99.90
29353;DHT22;16344;50.364;8.944;2023-05-07T02:38:21;16.60;99.90
29353;DHT22;16344;50.364;8.944;2023-05-07T02:40:46;16.60;99.90
29353;DHT22;16344;50.364;8.944;2023-05-07T02:43:12;16.60;99.90
29353;DHT22;16344;50.364;8.944;2023-05-07T02:45:37;16.70;99.90
29353;DHT22;16344;50.364;8.944;2023-05-07T02:48:04;16.60;99.90
29353;DHT22;16344;50.364;8.944;2023-05-07T02:50:30;16.60;99.90
29353;DHT22;16344;50.364;8.944;2023-05-07T02:52:58;16.50;99.90
29353;DHT22;16344;50.364;8.944;2023-05-07T02:55:23;16.40;99.90
29353;DHT22;16344;50.364;8.944;2023-05-07T02:57:49;16.50;99.90
29353;DHT22;16344;50.364;8.944;2023-05-07T03:00:17;16.60;99.90
29353;DHT22;16344;50.364;8.944;2023-05-07T03:02:43;16.60;99.90
29353;DHT22;16344;50.364;8.944;2023-05-07T03:05:09;16.60;99.90
29353;DHT22;16344;50.364;8.944;2023-05-07T03:07:35;16.70;99.90
29353;DHT22;16344;50.364;8.944;2023-05-07T03:10:01;16.60;99.90
29353;DHT22;16344;50.364;8.944;2023-05-07T03:12:27;16.70;99.90
29353;DHT22;16344;50.364;8.944;2023-05-07T03:14:53;16.70;99.90
29353;DHT22;16344;50.364;8.944;2023-05-07T03:17:19;16.70;99.90
29353;DHT22;16344;50.364;8.944;2023-05-07T03:19:45;16.60;99.90
29353;DHT22;16344;50.364;8.944;2023-05-07T03:22:10;16.80;99.90
29353;DHT22;16344;50.364;8.944;2023-05-07T03:24:36;16.80;99.90
29353;DHT22;16344;50.364;8.944;2023-05-07T03:27:01;16.70;99.90
29353;DHT22;16344;50.364;8.944;2023-05-07T03:29:28;16.70;99.90
29353;DHT22;16344;50.364;8.944;2023-05-07T03:31:54;16.70;99.90
29353;DHT22;16344;50.364;8.944;2023-05-07T03:34:19;16.80;99.90
29353;DHT22;16344;50.364;8.944;2023-05-07T03:36:48;16.80;99.90
29353;DHT22;16344;50.364;8.944;2023-05-07T03:39:14;16.80;99.90
29353;DHT22;16344;50.364;8.944;2023-05-07T03:41:39;16.90;99.90
29353;DHT22;16344;50.364;8.944;2023-05-07T03:44:05;16.90;99.90
29353;DHT22;16344;50.364;8.944;2023-05-07T03:46:31;16.90;99.90
29353;DHT22;16344;50.364;8.944;2023-05-07T03:48:58;17.00;99.90
29353;DHT22;16344;50.364;8.944;2023-05-07T03:51:23;17.00;99.90
29353;DHT22;16344;50.364;8.944;2023-05-07T03:53:49;17.00;99.90
29353;DHT22;16344;50.364;8.944;2023-05-07T03:56:18;17.00;99.90
29353;DHT22;16344;50.364;8.944;2023-05-07T03:58:43;17.00;99.90
29353;DHT22;16344;50.364;8.944;2023-05-07T04:01:09;16.90;99.90
29353;DHT22;16344;50.364;8.944;2023-05-07T04:03:35;17.00;99.90
29353;DHT22;16344;50.364;8.944;2023-05-07T04:06:00;17.00;99.90
29353;DHT22;16344;50.364;8.944;2023-05-07T04:08:26;16.90;99.90
29353;DHT22;16344;50.364;8.944;2023-05-07T04:10:58;16.80;99.90
29353;DHT22;16344;50.364;8.944;2023-05-07T04:13:24;16.80;99.90
29353;DHT22;16344;50.364;8.944;2023-05-07T04:15:54;16.80;99.90
29353;DHT22;16344;50.364;8.944;2023-05-07T04:18:20;16.60;99.90
29353;DHT22;16344;50.364;8.944;2023-05-07T04:20:47;16.50;99.90
29353;DHT22;16344;50.364;8.944;2023-05-07T04:23:13;16.40;99.90
29353;DHT22;16344;50.364;8.944;2023-05-07T04:25:38;16.20;99.90
29353;DHT22;16344;50.364;8.944;2023-05-07T04:28:04;16.30;99.90
29353;DHT22;16344;50.364;8.944;2023-05-07T04:30:30;16.20;99.90
29353;DHT22;16344;50.364;8.944;2023-05-07T04:32:55;16.30;99.90
29353;DHT22;16344;50.364;8.944;2023-05-07T04:35:22;16.40;99.90
29353;DHT22;16344;50.364;8.944;2023-05-07T04:37:47;16.50;99.90
29353;DHT22;16344;50.364;8.944;2023-05-07T04:40:13;16.60;99.90
29353;DHT22;16344;50.364;8.944;2023-05-07T04:42:38;16.50;99.90
29353;DHT22;16344;50.364;8.944;2023-05-07T04:45:04;16.50;99.90
29353;DHT22;16344;50.364;8.944;2023-05-07T04:47:30;16.60;99.90
29353;DHT22;16344;50.364;8.944;2023-05-07T04:49:57;16.50;99.90
29353;DHT22;16344;50.364;8.944;2023-05-07T04:52:22;16.50;99.90
29353;DHT22;16344;50.364;8.944;2023-05-07T04:54:48;16.40;99.90
29353;DHT22;16344;50.364;8.944;2023-05-07T04:57:13;16.40;99.90
29353;DHT22;16344;50.364;8.944;2023-05-07T04:59:39;16.40;99.90
29353;DHT22;16344;50.364;8.944;2023-05-07T05:02:04;16.40;99.90
29353;DHT22;16344;50.364;8.944;2023-05-07T05:04:30;16.50;99.90
29353;DHT22;16344;50.364;8.944;2023-05-07T05:06:56;16.40;99.90
29353;DHT22;16344;50.364;8.944;2023-05-07T05:09:21;16.30;99.90
29353;DHT22;16344;50.364;8.944;2023-05-07T05:11:47;16.30;99.90
29353;DHT22;16344;50.364;8.944;2023-05-07T05:14:12;16.30;99.90
29353;DHT22;16344;50.364;8.944;2023-05-07T05:16:38;16.50;99.90
29353;DHT22;16344;50.364;8.944;2023-05-07T05:19:03;16.40;99.90
29353;DHT22;16344;50.364;8.944;2023-05-07T05:21:29;16.50;99.90
29353;DHT22;16344;50.364;8.944;2023-05-07T05:23:55;16.50;99.90
29353;DHT22;16344;50.364;8.944;2023-05-07T05:26:21;16.50;99.90
29353;DHT22;16344;50.364;8.944;2023-05-07T05:28:46;16.60;99.90
29353;DHT22;16344;50.364;8.944;2023-05-07T05:31:12;16.60;99.90
29353;DHT22;16344;50.364;8.944;2023-05-07T05:33:37;16.80;99.90
29353;DHT22;16344;50.364;8.944;2023-05-07T05:36:03;16.80;94.60
29353;DHT22;16344;50.364;8.944;2023-05-07T05:38:29;16.90;89.90
29353;DHT22;16344;50.364;8.944;2023-05-07T05:40:55;17.00;73.10
29353;DHT22;16344;50.364;8.944;2023-05-07T05:43:20;17.10;99.90
29353;DHT22;16344;50.364;8.944;2023-05-07T05:45:46;17.10;99.90
29353;DHT22;16344;50.364;8.944;2023-05-07T05:48:11;17.10;95.50
29353;DHT22;16344;50.364;8.944;2023-05-07T05:50:37;17.20;98.20
29353;DHT22;16344;50.364;8.944;2023-05-07T05:53:02;17.30;99.90
29353;DHT22;16344;50.364;8.944;2023-05-07T05:55:28;17.40;90.50
29353;DHT22;16344;50.364;8.944;2023-05-07T05:57:54;17.40;99.90
29353;DHT22;16344;50.364;8.944;2023-05-07T06:00:20;17.50;99.90
29353;DHT22;16344;50.364;8.944;2023-05-07T06:02:48;17.60;91.60
29353;DHT22;16344;50.364;8.944;2023-05-07T06:05:13;17.70;99.90
29353;DHT22;16344;50.364;8.944;2023-05-07T06:07:39;17.80;87.00
29353;DHT22;16344;50.364;8.944;2023-05-07T06:10:05;17.70;76.50
29353;DHT22;16344;50.364;8.944;2023-05-07T06:12:31;17.80;99.90
29353;DHT22;16344;50.364;8.944;2023-05-07T06:14:56;17.80;99.20
29353;DHT22;16344;50.364;8.944;2023-05-07T06:17:22;17.80;99.90
29353;DHT22;16344;50.364;8.944;2023-05-07T06:19:47;17.80;48.90
29353;DHT22;16344;50.364;8.944;2023-05-07T06:22:13;17.90;94.70
29353;DHT22;16344;50.364;8.944;2023-05-07T06:24:38;17.90;99.90
29353;DHT22;16344;50.364;8.944;2023-05-07T06:27:04;17.80;20.10
29353;DHT22;16344;50.364;8.944;2023-05-07T06:29:29;17.70;75.10
29353;DHT22;16344;50.364;8.944;2023-05-07T06:32:12;17.70;99.90
29353;DHT22;16344;50.364;8.944;2023-05-07T06:34:39;17.80;99.90
29353;DHT22;16344;50.364;8.944;2023-05-07T06:37:05;17.80;99.90
29353;DHT22;16344;50.364;8.944;2023-05-07T06:39:30;17.80;99.90
29353;DHT22;16344;50.364;8.944;2023-05-07T06:41:56;17.80;93.80
29353;DHT22;16344;50.364;8.944;2023-05-07T06:44:22;17.60;83.40
29353;DHT22;16344;50.364;8.944;2023-05-07T06:46:47;17.60;99.90
29353;DHT22;16344;50.364;8.944;2023-05-07T06:49:13;17.70;99.90
29353;DHT22;16344;50.364;8.944;2023-05-07T06:51:39;17.70;99.90
29353;DHT22;16344;50.364;8.944;2023-05-07T06:54:05;17.80;99.90
29353;DHT22;16344;50.364;8.944;2023-05-07T06:56:31;17.70;99.90
29353;DHT22;16344;50.364;8.944;2023-05-07T06:58:56;17.80;99.90
29353;DHT22;16344;50.364;8.944;2023-05-07T07:01:22;17.80;99.90
29353;DHT22;16344;50.364;8.944;2023-05-07T07:03:48;18.00;50.00
29353;DHT22;16344;50.364;8.944;2023-05-07T07:06:14;18.00;17.80
29353;DHT22;16344;50.364;8.944;2023-05-07T07:08:39;18.10;11.80
29353;DHT22;16344;50.364;8.944;2023-05-07T07:11:06;18.20;18.20
29353;DHT22;16344;50.364;8.944;2023-05-07T07:13:31;18.20;1.00
29353;DHT22;16344;50.364;8.944;2023-05-07T07:15:58;18.30;1.00
29353;DHT22;16344;50.364;8.944;2023-05-07T07:18:24;18.30;1.00
29353;DHT22;16344;50.364;8.944;2023-05-07T07:20:50;18.60;1.00
29353;DHT22;16344;50.364;8.944;2023-05-07T07:23:15;19.00;1.00
29353;DHT22;16344;50.364;8.944;2023-05-07T07:25:41;19.20;1.00
29353;DHT22;16344;50.364;8.944;2023-05-07T07:28:06;19.40;1.00
29353;DHT22;16344;50.364;8.944;2023-05-07T07:30:32;19.50;1.00
29353;DHT22;16344;50.364;8.944;2023-05-07T07:32:58;19.60;1.00
29353;DHT22;16344;50.364;8.944;2023-05-07T07:35:29;19.80;1.00
29353;DHT22;16344;50.364;8.944;2023-05-07T07:37:54;19.90;1.00
29353;DHT22;16344;50.364;8.944;2023-05-07T07:40:20;20.30;1.00
29353;DHT22;16344;50.364;8.944;2023-05-07T07:42:45;20.60;1.00
29353;DHT22;16344;50.364;8.944;2023-05-07T07:45:11;20.90;1.00
29353;DHT22;16344;50.364;8.944;2023-05-07T07:47:37;21.10;1.00
29353;DHT22;16344;50.364;8.944;2023-05-07T07:50:03;21.00;1.00
29353;DHT22;16344;50.364;8.944;2023-05-07T07:52:29;21.00;1.00
29353;DHT22;16344;50.364;8.944;2023-05-07T07:54:54;20.70;1.00
29353;DHT22;16344;50.364;8.944;2023-05-07T07:57:20;20.80;1.00
29353;DHT22;16344;50.364;8.944;2023-05-07T07:59:46;20.90;1.00
29353;DHT22;16344;50.364;8.944;2023-05-07T08:02:11;20.80;1.00
29353;DHT22;16344;50.364;8.944;2023-05-07T08:04:37;21.00;1.00
29353;DHT22;16344;50.364;8.944;2023-05-07T08:07:03;20.80;1.00
29353;DHT22;16344;50.364;8.944;2023-05-07T08:09:28;20.70;1.00
29353;DHT22;16344;50.364;8.944;2023-05-07T08:11:54;20.60;1.00
29353;DHT22;16344;50.364;8.944;2023-05-07T08:14:19;20.20;1.00
29353;DHT22;16344;50.364;8.944;2023-05-07T08:16:45;20.10;1.00
29353;DHT22;16344;50.364;8.944;2023-05-07T08:19:10;20.10;1.00
29353;DHT22;16344;50.364;8.944;2023-05-07T08:21:39;20.20;1.00
29353;DHT22;16344;50.364;8.944;2023-05-07T08:24:05;20.10;1.00
29353;DHT22;16344;50.364;8.944;2023-05-07T08:26:30;20.30;1.00
29353;DHT22;16344;50.364;8.944;2023-05-07T08:28:56;20.30;1.00
29353;DHT22;16344;50.364;8.944;2023-05-07T08:31:21;20.50;1.00
29353;DHT22;16344;50.364;8.944;2023-05-07T08:33:47;20.80;1.00
29353;DHT22;16344;50.364;8.944;2023-05-07T08:36:12;21.00;1.00
29353;DHT22;16344;50.364;8.944;2023-05-07T08:38:38;21.10;1.00
29353;DHT22;16344;50.364;8.944;2023-05-07T08:41:06;21.00;1.00
29353;DHT22;16344;50.364;8.944;2023-05-07T08:43:33;21.00;1.00
29353;DHT22;16344;50.364;8.944;2023-05-07T08:46:01;21.10;1.00
29353;DHT22;16344;50.364;8.944;2023-05-07T08:48:29;21.00;1.00
29353;DHT22;16344;50.364;8.944;2023-05-07T08:50:57;20.80;1.00
29353;DHT22;16344;50.364;8.944;2023-05-07T08:53:23;20.90;1.00
29353;DHT22;16344;50.364;8.944;2023-05-07T08:55:49;21.00;1.00
29353;DHT22;16344;50.364;8.944;2023-05-07T08:58:14;21.10;1.00
29353;DHT22;16344;50.364;8.944;2023-05-07T09:00:40;21.40;1.00
29353;DHT22;16344;50.364;8.944;2023-05-07T09:03:07;21.50;1.00
29353;DHT22;16344;50.364;8.944;2023-05-07T09:05:32;21.80;1.00
29353;DHT22;16344;50.364;8.944;2023-05-07T09:08:06;21.90;1.00
29353;DHT22;16344;50.364;8.944;2023-05-07T09:10:33;22.10;1.00
29353;DHT22;16344;50.364;8.944;2023-05-07T09:12:59;22.00;1.00
29353;DHT22;16344;50.364;8.944;2023-05-07T09:15:25;21.80;1.00
29353;DHT22;16344;50.364;8.944;2023-05-07T09:17:51;22.10;1.00
29353;DHT22;16344;50.364;8.944;2023-05-07T09:20:17;22.30;1.00
29353;DHT22;16344;50.364;8.944;2023-05-07T09:22:42;22.50;1.00
29353;DHT22;16344;50.364;8.944;2023-05-07T09:25:09;22.50;1.00
29353;DHT22;16344;50.364;8.944;2023-05-07T09:27:35;22.50;1.00
29353;DHT22;16344;50.364;8.944;2023-05-07T09:30:07;22.30;1.00
29353;DHT22;16344;50.364;8.944;2023-05-07T09:32:37;22.00;1.00
29353;DHT22;16344;50.364;8.944;2023-05-07T09:35:05;22.00;1.00
29353;DHT22;16344;50.364;8.944;2023-05-07T09:37:31;21.90;1.00
29353;DHT22;16344;50.364;8.944;2023-05-07T09:39:58;21.90;1.00
29353;DHT22;16344;50.364;8.944;2023-05-07T09:42:26;21.90;1.00
29353;DHT22;16344;50.364;8.944;2023-05-07T09:44:52;22.20;1.00
29353;DHT22;16344;50.364;8.944;2023-05-07T09:47:19;22.50;1.00
29353;DHT22;16344;50.364;8.944;2023-05-07T09:49:47;22.90;1.00
29353;DHT22;16344;50.364;8.944;2023-05-07T09:52:14;23.00;1.00
29353;DHT22;16344;50.364;8.944;2023-05-07T09:54:40;23.20;1.00
29353;DHT22;16344;50.364;8.944;2023-05-07T09:57:12;23.40;1.00
29353;DHT22;16344;50.364;8.944;2023-05-07T09:59:42;23.50;1.00
29353;DHT22;16344;50.364;8.944;2023-05-07T10:02:09;23.50;1.00
29353;DHT22;16344;50.364;8.944;2023-05-07T10:04:35;23.50;1.00
29353;DHT22;16344;50.364;8.944;2023-05-07T10:07:01;23.80;1.00
29353;DHT22;16344;50.364;8.944;2023-05-07T10:09:29;24.00;1.00
29353;DHT22;16344;50.364;8.944;2023-05-07T10:11:56;24.20;1.00
29353;DHT22;16344;50.364;8.944;2023-05-07T10:14:22;24.50;1.00
29353;DHT22;16344;50.364;8.944;2023-05-07T10:16:48;24.90;1.00
29353;DHT22;16344;50.364;8.944;2023-05-07T10:19:14;25.10;1.00
29353;DHT22;16344;50.364;8.944;2023-05-07T10:21:45;25.40;1.00
29353;DHT22;16344;50.364;8.944;2023-05-07T10:24:29;25.50;1.00
29353;DHT22;16344;50.364;8.944;2023-05-07T10:26:58;25.30;1.00
29353;DHT22;16344;50.364;8.944;2023-05-07T10:35:04;24.70;1.00
29353;DHT22;16344;50.364;8.944;2023-05-07T10:37:32;24.30;1.00
29353;DHT22;16344;50.364;8.944;2023-05-07T10:39:58;24.40;1.00
29353;DHT22;16344;50.364;8.944;2023-05-07T10:42:24;24.50;1.00
29353;DHT22;16344;50.364;8.944;2023-05-07T10:44:49;24.70;1.00
29353;DHT22;16344;50.364;8.944;2023-05-07T10:47:18;24.50;1.00
29353;DHT22;16344;50.364;8.944;2023-05-07T10:52:14;24.30;1.00
29353;DHT22;16344;50.364;8.944;2023-05-07T10:54:41;24.60;1.00
29353;DHT22;16344;50.364;8.944;2023-05-07T10:57:33;24.40;1.00
29353;DHT22;16344;50.364;8.944;2023-05-07T11:00:01;24.10;1.00
29353;DHT22;16344;50.364;8.944;2023-05-07T11:05:28;23.40;1.00
29353;DHT22;16344;50.364;8.944;2023-05-07T11:08:01;23.50;1.00
29353;DHT22;16344;50.364;8.944;2023-05-07T11:10:50;23.70;1.00
29353;DHT22;16344;50.364;8.944;2023-05-07T11:13:17;23.60;1.00
29353;DHT22;16344;50.364;8.944;2023-05-07T11:15:47;23.70;1.00
29353;DHT22;16344;50.364;8.944;2023-05-07T11:18:17;23.40;1.00
29353;DHT22;16344;50.364;8.944;2023-05-07T11:20:51;23.60;1.00
29353;DHT22;16344;50.364;8.944;2023-05-07T11:26:12;24.40;1.00
29353;DHT22;16344;50.364;8.944;2023-05-07T11:28:39;24.50;1.00
29353;DHT22;16344;50.364;8.944;2023-05-07T11:31:05;24.70;1.00
29353;DHT22;16344;50.364;8.944;2023-05-07T11:33:33;24.50;1.00
29353;DHT22;16344;50.364;8.944;2023-05-07T11:35:59;24.50;1.00
29353;DHT22;16344;50.364;8.944;2023-05-07T11:38:25;24.70;1.00
29353;DHT22;16344;50.364;8.944;2023-05-07T11:40:52;24.70;1.00
29353;DHT22;16344;50.364;8.944;2023-05-07T11:43:18;24.40;1.00
29353;DHT22;16344;50.364;8.944;2023-05-07T11:45:48;24.30;1.00
29353;DHT22;16344;50.364;8.944;2023-05-07T11:48:15;24.40;1.00
29353;DHT22;16344;50.364;8.944;2023-05-07T11:51:04;24.50;1.00
29353;DHT22;16344;50.364;8.944;2023-05-07T11:53:41;24.50;1.00
29353;DHT22;16344;50.364;8.944;2023-05-07T11:56:14;24.60;1.00
29353;DHT22;16344;50.364;8.944;2023-05-07T11:58:41;24.40;1.00
29353;DHT22;16344;50.364;8.944;2023-05-07T12:01:08;24.60;1.00
29353;DHT22;16344;50.364;8.944;2023-05-07T12:03:37;24.70;1.00
29353;DHT22;16344;50.364;8.944;2023-05-07T12:06:08;25.10;1.00
29353;DHT22;16344;50.364;8.944;2023-05-07T12:08:36;25.00;1.00
29353;DHT22;16344;50.364;8.944;2023-05-07T12:11:03;24.90;1.00
29353;DHT22;16344;50.364;8.944;2023-05-07T12:13:28;24.80;1.00
29353;DHT22;16344;50.364;8.944;2023-05-07T12:15:55;24.70;1.00
29353;DHT22;16344;50.364;8.944;2023-05-07T12:18:22;24.50;1.00
29353;DHT22;16344;50.364;8.944;2023-05-07T12:20:48;24.50;1.00
29353;DHT22;16344;50.364;8.944;2023-05-07T12:23:14;24.50;1.00
29353;DHT22;16344;50.364;8.944;2023-05-07T12:25:42;24.50;1.00
29353;DHT22;16344;50.364;8.944;2023-05-07T12:28:16;24.50;1.00
29353;DHT22;16344;50.364;8.944;2023-05-07T12:30:47;24.50;1.00
29353;DHT22;16344;50.364;8.944;2023-05-07T12:33:17;24.60;1.00
29353;DHT22;16344;50.364;8.944;2023-05-07T12:35:43;24.80;1.00
29353;DHT22;16344;50.364;8.944;2023-05-07T12:38:14;24.80;1.00
29353;DHT22;16344;50.364;8.944;2023-05-07T12:40:41;25.00;1.00
29353;DHT22;16344;50.364;8.944;2023-05-07T12:43:08;25.20;1.00
29353;DHT22;16344;50.364;8.944;2023-05-07T12:45:41;25.10;1.00
29353;DHT22;16344;50.364;8.944;2023-05-07T12:48:07;25.00;1.00
29353;DHT22;16344;50.364;8.944;2023-05-07T12:50:35;25.00;1.00
29353;DHT22;16344;50.364;8.944;2023-05-07T12:53:00;25.00;1.00
29353;DHT22;16344;50.364;8.944;2023-05-07T12:55:31;25.20;1.00
29353;DHT22;16344;50.364;8.944;2023-05-07T12:57:57;25.10;1.00
29353;DHT22;16344;50.364;8.944;2023-05-07T13:00:36;24.80;1.00
29353;DHT22;16344;50.364;8.944;2023-05-07T13:03:02;24.70;1.00
29353;DHT22;16344;50.364;8.944;2023-05-07T13:05:28;24.80;1.00
29353;DHT22;16344;50.364;8.944;2023-05-07T13:07:54;25.00;1.00
29353;DHT22;16344;50.364;8.944;2023-05-07T13:10:21;24.90;1.00
29353;DHT22;16344;50.364;8.944;2023-05-07T13:12:46;25.10;1.00
29353;DHT22;16344;50.364;8.944;2023-05-07T13:15:12;25.00;1.00
29353;DHT22;16344;50.364;8.944;2023-05-07T13:17:37;24.80;1.00
29353;DHT22;16344;50.364;8.944;2023-05-07T13:20:03;24.40;1.00
29353;DHT22;16344;50.364;8.944;2023-05-07T13:22:29;24.10;1.00
29353;DHT22;16344;50.364;8.944;2023-05-07T13:24:54;24.20;1.00
29353;DHT22;16344;50.364;8.944;2023-05-07T13:27:20;24.40;1.00
29353;DHT22;16344;50.364;8.944;2023-05-07T13:29:45;24.50;1.00
29353;DHT22;16344;50.364;8.944;2023-05-07T13:32:11;24.60;1.00
29353;DHT22;16344;50.364;8.944;2023-05-07T13:34:36;24.90;1.00
29353;DHT22;16344;50.364;8.944;2023-05-07T13:37:02;24.80;1.00
29353;DHT22;16344;50.364;8.944;2023-05-07T13:39:28;24.80;1.00
29353;DHT22;16344;50.364;8.944;2023-05-07T13:41:53;24.80;1.00
29353;DHT22;16344;50.364;8.944;2023-05-07T13:44:19;24.90;1.00
29353;DHT22;16344;50.364;8.944;2023-05-07T13:46:44;24.50;1.00
29353;DHT22;16344;50.364;8.944;2023-05-07T13:49:10;24.30;1.00
29353;DHT22;16344;50.364;8.944;2023-05-07T13:51:36;24.70;1.00
29353;DHT22;16344;50.364;8.944;2023-05-07T13:54:02;25.00;1.00
29353;DHT22;16344;50.364;8.944;2023-05-07T13:56:28;24.80;1.00
29353;DHT22;16344;50.364;8.944;2023-05-07T13:58:56;24.30;1.00
29353;DHT22;16344;50.364;8.944;2023-05-07T14:01:21;24.10;1.00
29353;DHT22;16344;50.364;8.944;2023-05-07T14:03:47;24.10;1.00
29353;DHT22;16344;50.364;8.944;2023-05-07T14:06:12;24.00;1.00
29353;DHT22;16344;50.364;8.944;2023-05-07T14:08:38;24.30;1.00
29353;DHT22;16344;50.364;8.944;2023-05-07T14:11:03;24.30;1.00
29353;DHT22;16344;50.364;8.944;2023-05-07T14:13:29;24.30;1.00
29353;DHT22;16344;50.364;8.944;2023-05-07T14:15:56;24.30;1.00
29353;DHT22;16344;50.364;8.944;2023-05-07T14:18:21;24.10;1.00
29353;DHT22;16344;50.364;8.944;2023-05-07T14:20:47;24.00;1.00
29353;DHT22;16344;50.364;8.944;2023-05-07T14:23:14;23.90;1.00
29353;DHT22;16344;50.364;8.944;2023-05-07T14:25:40;24.00;1.00
29353;DHT22;16344;50.364;8.944;2023-05-07T14:28:06;24.30;1.00
29353;DHT22;16344;50.364;8.944;2023-05-07T14:30:32;24.20;1.00
29353;DHT22;16344;50.364;8.944;2023-05-07T14:32:57;24.30;1.00
29353;DHT22;16344;50.364;8.944;2023-05-07T14:35:23;24.00;1.00
29353;DHT22;16344;50.364;8.944;2023-05-07T14:37:48;23.80;1.00
29353;DHT22;16344;50.364;8.944;2023-05-07T14:40:14;23.70;1.00
29353;DHT22;16344;50.364;8.944;2023-05-07T14:42:40;23.80;1.00
29353;DHT22;16344;50.364;8.944;2023-05-07T14:45:06;23.80;1.00
29353;DHT22;16344;50.364;8.944;2023-05-07T14:47:31;23.80;1.00
29353;DHT22;16344;50.364;8.944;2023-05-07T14:49:57;23.70;1.00
29353;DHT22;16344;50.364;8.944;2023-05-07T14:52:23;23.60;1.00
29353;DHT22;16344;50.364;8.944;2023-05-07T14:54:49;23.40;1.00
29353;DHT22;16344;50.364;8.944;2023-05-07T14:57:14;23.30;1.00
29353;DHT22;16344;50.364;8.944;2023-05-07T14:59:41;23.40;1.00
29353;DHT22;16344;50.364;8.944;2023-05-07T15:02:07;23.40;1.00
29353;DHT22;16344;50.364;8.944;2023-05-07T15:04:34;23.20;1.00
29353;DHT22;16344;50.364;8.944;2023-05-07T15:07:00;23.10;1.00
29353;DHT22;16344;50.364;8.944;2023-05-07T15:09:25;23.00;1.00
29353;DHT22;16344;50.364;8.944;2023-05-07T15:11:51;23.00;1.00
29353;DHT22;16344;50.364;8.944;2023-05-07T15:14:17;22.90;1.00
29353;DHT22;16344;50.364;8.944;2023-05-07T15:16:43;22.90;1.00
29353;DHT22;16344;50.364;8.944;2023-05-07T15:19:08;22.80;1.00
29353;DHT22;16344;50.364;8.944;2023-05-07T15:21:34;22.80;1.00
29353;DHT22;16344;50.364;8.944;2023-05-07T15:24:01;22.70;1.00
29353;DHT22;16344;50.364;8.944;2023-05-07T15:26:27;22.70;1.00
29353;DHT22;16344;50.364;8.944;2023-05-07T15:28:52;22.70;1.00
29353;DHT22;16344;50.364;8.944;2023-05-07T15:31:18;22.60;1.00
29353;DHT22;16344;50.364;8.944;2023-05-07T15:33:44;22.60;1.00
29353;DHT22;16344;50.364;8.944;2023-05-07T15:36:10;22.60;1.00
29353;DHT22;16344;50.364;8.944;2023-05-07T15:38:36;22.70;1.00
29353;DHT22;16344;50.364;8.944;2023-05-07T15:41:01;22.80;1.00
29353;DHT22;16344;50.364;8.944;2023-05-07T15:43:27;22.80;1.00
29353;DHT22;16344;50.364;8.944;2023-05-07T15:45:52;22.80;1.00
29353;DHT22;16344;50.364;8.944;2023-05-07T15:48:18;22.90;1.00
29353;DHT22;16344;50.364;8.944;2023-05-07T15:50:45;22.90;1.00